createdAt,value
2019-03-19T00:00:53.243Z,5.71
2019-03-19T00:01:53.450Z,5.7
2019-03-19T00:02:54.212Z,5.69
2019-03-19T00:03:53.294Z,5.67
2019-03-19T00:04:53.278Z,5.67
2019-03-19T00:05:53.316Z,5.64
2019-03-19T00:06:53.261Z,5.64
2019-03-19T00:07:53.277Z,5.63
2019-03-19T00:08:53.253Z,5.62
2019-03-19T00:09:53.261Z,5.6
2019-03-19T00:10:53.262Z,5.6
2019-03-19T00:11:53.277Z,5.56
2019-03-19T00:12:53.276Z,5.56
2019-03-19T00:13:53.265Z,5.6
2019-03-19T00:14:53.243Z,5.59
2019-03-19T00:15:53.263Z,5.57
2019-03-19T00:16:54.123Z,5.49
2019-03-19T00:17:53.334Z,5.49
2019-03-19T00:18:53.242Z,5.51
2019-03-19T00:19:53.260Z,5.51
2019-03-19T00:20:53.280Z,5.51
2019-03-19T00:21:53.229Z,5.53
2019-03-19T00:22:53.274Z,5.54
2019-03-19T00:23:53.510Z,5.53
2019-03-19T00:24:53.603Z,5.54
2019-03-19T00:25:53.372Z,5.5
2019-03-19T00:26:53.257Z,5.5
2019-03-19T00:27:53.252Z,5.51
2019-03-19T00:28:53.210Z,5.5
2019-03-19T00:29:53.382Z,5.49
2019-03-19T00:30:53.214Z,5.49
2019-03-19T00:31:53.250Z,5.49
2019-03-19T00:32:53.248Z,5.47
2019-03-19T00:33:53.343Z,5.49
2019-03-19T00:34:53.202Z,5.47
2019-03-19T00:35:53.203Z,5.47
2019-03-19T00:36:53.239Z,5.43
2019-03-19T00:37:53.230Z,5.43
2019-03-19T00:38:53.195Z,5.42
2019-03-19T00:39:53.214Z,5.35
2019-03-19T00:40:53.202Z,5.35
2019-03-19T00:41:53.355Z,5.35
2019-03-19T00:42:53.237Z,5.35
2019-03-19T00:43:53.209Z,5.35
2019-03-19T00:44:53.222Z,5.33
2019-03-19T00:45:53.439Z,5.35
2019-03-19T00:46:53.451Z,5.32
2019-03-19T00:47:53.235Z,5.33
2019-03-19T00:48:53.187Z,5.33
2019-03-19T00:49:53.190Z,5.33
2019-03-19T00:50:53.213Z,5.38
2019-03-19T00:51:54.095Z,5.39
2019-03-19T00:52:53.215Z,5.38
2019-03-19T00:53:53.181Z,5.39
2019-03-19T00:54:53.200Z,5.36
2019-03-19T00:55:53.193Z,5.39
2019-03-19T00:56:53.186Z,5.36
2019-03-19T00:57:53.182Z,5.36
2019-03-19T00:58:53.177Z,5.39
2019-03-19T00:59:53.175Z,5.39
2019-03-19T01:00:53.170Z,5.36
2019-03-19T01:01:53.172Z,5.35
2019-03-19T01:02:53.188Z,5.35
2019-03-19T01:03:53.239Z,5.38
2019-03-19T01:04:53.230Z,5.38
2019-03-19T01:05:53.185Z,5.38
2019-03-19T01:06:53.207Z,5.39
2019-03-19T01:07:53.492Z,5.39
2019-03-19T01:08:53.155Z,5.4
2019-03-19T01:09:53.178Z,5.4
2019-03-19T01:10:53.188Z,5.38
2019-03-19T01:11:53.160Z,5.39
2019-03-19T01:12:53.165Z,5.39
2019-03-19T01:13:53.148Z,5.4
2019-03-19T01:14:53.169Z,5.39
2019-03-19T01:15:53.168Z,5.4
2019-03-19T01:16:53.163Z,5.39
2019-03-19T01:17:53.184Z,5.38
2019-03-19T01:18:53.152Z,5.39
2019-03-19T01:19:53.164Z,5.39
2019-03-19T01:20:53.137Z,5.39
2019-03-19T01:21:53.160Z,5.38
2019-03-19T01:22:53.150Z,5.39
2019-03-19T01:23:53.221Z,5.38
2019-03-19T01:24:53.233Z,5.36
2019-03-19T01:25:56.195Z,5.36
2019-03-19T01:26:53.149Z,5.35
2019-03-19T01:27:53.182Z,5.32
2019-03-19T01:28:53.141Z,5.3
2019-03-19T01:29:53.165Z,5.3
2019-03-19T01:30:53.163Z,5.3
2019-03-19T01:31:53.128Z,5.28
2019-03-19T01:32:53.192Z,5.28
2019-03-19T01:33:53.265Z,5.28
2019-03-19T01:34:53.148Z,5.28
2019-03-19T01:35:53.114Z,5.26
2019-03-19T01:36:53.108Z,5.26
2019-03-19T01:37:53.177Z,5.23
2019-03-19T01:38:53.123Z,5.25
2019-03-19T01:39:53.113Z,5.23
2019-03-19T01:40:53.132Z,5.23
2019-03-19T01:41:53.101Z,5.23
2019-03-19T01:42:53.114Z,5.19
2019-03-19T01:43:53.116Z,5.18
2019-03-19T01:44:53.118Z,5.15
2019-03-19T01:45:53.101Z,5.15
2019-03-19T01:46:53.139Z,5.14
2019-03-19T01:47:53.095Z,5.1
2019-03-19T01:48:53.134Z,5.1
2019-03-19T01:49:53.112Z,5.1
2019-03-19T01:50:53.364Z,5.07
2019-03-19T01:51:53.087Z,5.07
2019-03-19T01:52:53.088Z,5.05
2019-03-19T01:53:53.100Z,5.04
2019-03-19T01:54:53.100Z,5.02
2019-03-19T01:55:53.107Z,5.01
2019-03-19T01:56:53.091Z,4.98
2019-03-19T01:57:53.108Z,5
2019-03-19T01:58:53.106Z,4.98
2019-03-19T01:59:53.099Z,4.97
2019-03-19T02:00:53.142Z,4.91
2019-03-19T02:01:53.095Z,4.94
2019-03-19T02:02:53.102Z,4.9
2019-03-19T02:03:53.083Z,4.9
2019-03-19T02:04:53.115Z,4.86
2019-03-19T02:05:53.194Z,4.83
2019-03-19T02:06:53.072Z,4.83
2019-03-19T02:07:53.135Z,4.81
2019-03-19T02:08:53.142Z,4.8
2019-03-19T02:09:53.067Z,4.79
2019-03-19T02:10:53.075Z,4.74
2019-03-19T02:11:53.079Z,4.69
2019-03-19T02:12:53.405Z,4.67
2019-03-19T02:13:53.075Z,4.65
2019-03-19T02:14:53.054Z,4.62
2019-03-19T02:15:53.071Z,4.6
2019-03-19T02:16:53.055Z,4.6
2019-03-19T02:17:53.077Z,4.57
2019-03-19T02:18:53.054Z,4.55
2019-03-19T02:19:53.072Z,4.56
2019-03-19T02:20:53.039Z,4.51
2019-03-19T02:21:53.051Z,4.49
2019-03-19T02:22:53.244Z,4.48
2019-03-19T02:23:53.071Z,4.45
2019-03-19T02:24:53.080Z,4.45
2019-03-19T02:25:53.059Z,4.46
2019-03-19T02:26:53.128Z,4.43
2019-03-19T02:27:53.079Z,4.4
2019-03-19T02:28:53.046Z,4.4
2019-03-19T02:29:53.036Z,4.35
2019-03-19T02:30:53.147Z,4.33
2019-03-19T02:31:53.076Z,4.3
2019-03-19T02:32:53.039Z,4.29
2019-03-19T02:33:53.147Z,4.29
2019-03-19T02:34:53.211Z,4.28
2019-03-19T02:35:53.062Z,4.3
2019-03-19T02:36:53.031Z,4.29
2019-03-19T02:37:53.170Z,4.29
2019-03-19T02:38:53.023Z,4.26
2019-03-19T02:39:53.040Z,4.28
2019-03-19T02:40:53.110Z,4.26
2019-03-19T02:41:53.051Z,4.26
2019-03-19T02:42:53.050Z,4.25
2019-03-19T02:43:53.008Z,4.22
2019-03-19T02:44:53.031Z,4.25
2019-03-19T02:45:53.016Z,4.25
2019-03-19T02:46:53.017Z,4.22
2019-03-19T02:47:53.448Z,4.19
2019-03-19T02:48:53.086Z,4.18
2019-03-19T02:49:53.036Z,4.17
2019-03-19T02:50:53.006Z,4.17
2019-03-19T02:51:53.014Z,4.12
2019-03-19T02:52:53.021Z,4.1
2019-03-19T02:53:53.011Z,4.1
2019-03-19T02:54:52.996Z,4.08
2019-03-19T02:55:54.868Z,4.08
2019-03-19T02:56:53.022Z,4.07
2019-03-19T02:57:53.028Z,4.07
2019-03-19T02:58:53.018Z,4.05
2019-03-19T02:59:52.991Z,4.04
2019-03-19T03:00:53.007Z,4.01
2019-03-19T03:01:53.065Z,4.04
2019-03-19T03:02:53.016Z,4.05
2019-03-19T03:03:53.005Z,4.02
2019-03-19T03:04:53.034Z,4.04
2019-03-19T03:05:52.999Z,4.04
2019-03-19T03:06:52.982Z,4.02
2019-03-19T03:07:53.052Z,4.04
2019-03-19T03:08:53.021Z,4.04
2019-03-19T03:09:52.970Z,4.02
2019-03-19T03:10:53.020Z,4.02
2019-03-19T03:11:52.987Z,4.02
2019-03-19T03:12:52.998Z,4.05
2019-03-19T03:13:52.969Z,4.02
2019-03-19T03:14:53.026Z,3.97
2019-03-19T03:15:52.938Z,3.98
2019-03-19T03:16:52.980Z,4
2019-03-19T03:17:52.981Z,3.98
2019-03-19T03:18:52.995Z,3.89
2019-03-19T03:19:52.971Z,3.89
2019-03-19T03:20:52.974Z,3.84
2019-03-19T03:21:53.003Z,3.83
2019-03-19T03:22:52.970Z,3.82
2019-03-19T03:23:52.962Z,3.83
2019-03-19T03:24:53.043Z,3.82
2019-03-19T03:25:52.958Z,3.84
2019-03-19T03:26:52.966Z,3.86
2019-03-19T03:27:52.988Z,3.87
2019-03-19T03:28:52.985Z,3.83
2019-03-19T03:29:52.963Z,3.86
2019-03-19T03:30:53.001Z,3.83
2019-03-19T03:31:52.977Z,3.84
2019-03-19T03:32:53.180Z,3.84
2019-03-19T03:33:52.925Z,3.84
2019-03-19T03:34:52.946Z,3.84
2019-03-19T03:35:52.994Z,3.89
2019-03-19T03:36:52.972Z,3.86
2019-03-19T03:37:52.991Z,3.86
2019-03-19T03:38:52.950Z,3.87
2019-03-19T03:39:52.934Z,3.9
2019-03-19T03:40:52.950Z,3.9
2019-03-19T03:41:52.954Z,3.9
2019-03-19T03:42:52.918Z,3.91
2019-03-19T03:43:52.901Z,3.93
2019-03-19T03:44:52.934Z,3.93
2019-03-19T03:45:53.045Z,3.9
2019-03-19T03:46:52.911Z,3.89
2019-03-19T03:47:52.940Z,3.91
2019-03-19T03:48:53.010Z,3.91
2019-03-19T03:49:52.984Z,3.87
2019-03-19T03:50:52.936Z,3.89
2019-03-19T03:51:52.912Z,3.91
2019-03-19T03:52:52.967Z,3.91
2019-03-19T03:53:52.927Z,3.91
2019-03-19T03:54:52.938Z,3.89
2019-03-19T03:55:52.981Z,3.86
2019-03-19T03:57:03.126Z,3.83
2019-03-19T03:57:52.932Z,3.82
2019-03-19T03:59:01.597Z,3.83
2019-03-19T03:59:52.914Z,3.8
2019-03-19T04:00:53.308Z,3.83
2019-03-19T04:01:52.933Z,3.82
2019-03-19T04:02:52.961Z,3.86
2019-03-19T04:03:52.881Z,3.83
2019-03-19T04:04:52.932Z,3.87
2019-03-19T04:05:52.935Z,3.86
2019-03-19T04:06:52.909Z,3.86
2019-03-19T04:07:52.885Z,3.87
2019-03-19T04:08:52.900Z,3.84
2019-03-19T04:09:53.058Z,3.84
2019-03-19T04:10:52.920Z,3.83
2019-03-19T04:11:52.907Z,3.83
2019-03-19T04:12:52.923Z,3.83
2019-03-19T04:13:52.906Z,3.83
2019-03-19T04:14:52.928Z,3.82
2019-03-19T04:15:52.917Z,3.82
2019-03-19T04:16:52.923Z,3.8
2019-03-19T04:17:52.893Z,3.8
2019-03-19T04:18:52.876Z,3.82
2019-03-19T04:19:52.878Z,3.82
2019-03-19T04:20:52.857Z,3.83
2019-03-19T04:21:52.866Z,3.84
2019-03-19T04:22:53.141Z,3.86
2019-03-19T04:23:52.852Z,3.84
2019-03-19T04:24:52.878Z,3.87
2019-03-19T04:25:52.885Z,3.86
2019-03-19T04:26:52.893Z,3.87
2019-03-19T04:27:52.873Z,3.9
2019-03-19T04:28:52.880Z,3.89
2019-03-19T04:29:52.880Z,3.86
2019-03-19T04:30:52.884Z,3.86
2019-03-19T04:31:52.928Z,3.84
2019-03-19T04:32:52.859Z,3.84
2019-03-19T04:33:52.943Z,3.8
2019-03-19T04:34:52.880Z,3.8
2019-03-19T04:35:52.853Z,3.84
2019-03-19T04:36:52.866Z,3.86
2019-03-19T04:37:52.853Z,3.87
2019-03-19T04:38:52.941Z,3.83
2019-03-19T04:39:52.839Z,3.86
2019-03-19T04:40:52.886Z,3.86
2019-03-19T04:41:52.864Z,3.87
2019-03-19T04:42:53.009Z,3.87
2019-03-19T04:43:53.101Z,3.86
2019-03-19T04:44:53.071Z,3.86
2019-03-19T04:45:52.851Z,3.89
2019-03-19T04:46:52.951Z,3.89
2019-03-19T04:47:52.866Z,3.87
2019-03-19T04:48:52.856Z,3.84
2019-03-19T04:49:52.869Z,3.84
2019-03-19T04:50:53.173Z,3.82
2019-03-19T04:51:52.859Z,3.8
2019-03-19T04:52:52.809Z,3.79
2019-03-19T04:53:52.855Z,3.76
2019-03-19T04:54:52.817Z,3.76
2019-03-19T04:55:52.825Z,3.77
2019-03-19T04:56:52.879Z,3.79
2019-03-19T04:57:52.804Z,3.76
2019-03-19T04:58:52.839Z,3.74
2019-03-19T04:59:52.806Z,3.76
2019-03-19T05:00:52.826Z,3.76
2019-03-19T05:01:52.802Z,3.79
2019-03-19T05:02:52.787Z,3.59
2019-03-19T05:03:52.807Z,3.51
2019-03-19T05:04:52.809Z,3.48
2019-03-19T05:05:53.112Z,3.38
2019-03-19T05:06:52.835Z,3.38
2019-03-19T05:07:52.829Z,3.38
2019-03-19T05:08:52.815Z,3.38
2019-03-19T05:09:52.827Z,3.38
2019-03-19T05:10:52.802Z,3.42
2019-03-19T05:11:52.799Z,3.44
2019-03-19T05:12:52.765Z,3.45
2019-03-19T05:13:52.776Z,3.39
2019-03-19T05:14:52.807Z,3.38
2019-03-19T05:15:52.789Z,3.37
2019-03-19T05:16:52.795Z,3.38
2019-03-19T05:17:52.777Z,3.34
2019-03-19T05:18:52.787Z,3.32
2019-03-19T05:19:52.784Z,3.17
2019-03-19T05:20:52.793Z,3.17
2019-03-19T05:21:52.775Z,3.15
2019-03-19T05:22:52.789Z,3.18
2019-03-19T05:23:52.775Z,3.11
2019-03-19T05:24:52.820Z,3.17
2019-03-19T05:25:53.653Z,3.18
2019-03-19T05:26:52.757Z,3.21
2019-03-19T05:27:52.943Z,3.22
2019-03-19T05:28:52.799Z,3.25
2019-03-19T05:29:52.790Z,3.14
2019-03-19T05:30:52.781Z,3.08
2019-03-19T05:31:52.771Z,3.11
2019-03-19T05:32:52.785Z,3.11
2019-03-19T05:33:52.760Z,3.06
2019-03-19T05:34:52.771Z,2.99
2019-03-19T05:35:52.757Z,2.97
2019-03-19T05:36:52.795Z,2.94
2019-03-19T05:37:52.744Z,2.99
2019-03-19T05:38:53.626Z,3
2019-03-19T05:39:52.786Z,3.04
2019-03-19T05:40:52.755Z,3.06
2019-03-19T05:41:52.841Z,3.08
2019-03-19T05:42:52.747Z,3.12
2019-03-19T05:43:52.754Z,3.14
2019-03-19T05:44:52.849Z,3.15
2019-03-19T05:45:52.726Z,3.12
2019-03-19T05:46:52.723Z,3.2
2019-03-19T05:48:52.744Z,3.22
2019-03-19T05:49:52.774Z,3.24
2019-03-19T05:50:52.753Z,3.24
2019-03-19T05:51:52.758Z,3.29
2019-03-19T05:52:52.748Z,3.28
2019-03-19T05:53:52.728Z,3.27
2019-03-19T05:54:52.739Z,3.28
2019-03-19T05:55:52.750Z,3.27
2019-03-19T05:56:52.714Z,3.28
2019-03-19T05:57:52.728Z,3.31
2019-03-19T05:58:52.703Z,3.31
2019-03-19T05:59:52.794Z,3.31
2019-03-19T06:00:52.807Z,3.32
2019-03-19T06:01:52.745Z,3.32
2019-03-19T06:02:53.011Z,3.34
2019-03-19T06:03:52.730Z,3.32
2019-03-19T06:04:52.731Z,3.31
2019-03-19T06:05:52.720Z,3.32
2019-03-19T06:06:52.708Z,3.35
2019-03-19T06:07:52.746Z,3.35
2019-03-19T06:08:52.709Z,3.37
2019-03-19T06:09:52.733Z,3.38
2019-03-19T06:10:54.357Z,3.39
2019-03-19T06:11:53.046Z,3.45
2019-03-19T06:12:52.803Z,3.45
2019-03-19T06:13:52.725Z,3.44
2019-03-19T06:14:52.711Z,3.45
2019-03-19T06:15:52.716Z,3.46
2019-03-19T06:16:52.693Z,3.49
2019-03-19T06:17:52.773Z,3.48
2019-03-19T06:18:52.729Z,3.51
2019-03-19T06:19:52.699Z,3.49
2019-03-19T06:20:52.719Z,3.51
2019-03-19T06:21:52.691Z,3.52
2019-03-19T06:22:52.718Z,3.54
2019-03-19T06:23:52.707Z,3.52
2019-03-19T06:24:52.681Z,3.54
2019-03-19T06:25:52.743Z,3.54
2019-03-19T06:26:52.775Z,3.56
2019-03-19T06:28:01.094Z,3.56
2019-03-19T06:28:52.724Z,3.59
2019-03-19T06:29:52.670Z,3.61
2019-03-19T06:30:52.681Z,3.63
2019-03-19T06:31:52.671Z,3.65
2019-03-19T06:32:53.076Z,3.66
2019-03-19T06:33:52.659Z,3.69
2019-03-19T06:34:52.652Z,3.7
2019-03-19T06:35:52.656Z,3.72
2019-03-19T06:36:52.695Z,3.74
2019-03-19T06:37:52.684Z,3.76
2019-03-19T06:38:52.653Z,3.76
2019-03-19T06:39:52.671Z,3.79
2019-03-19T06:40:52.683Z,3.82
2019-03-19T06:41:52.645Z,3.83
2019-03-19T06:42:52.672Z,3.84
2019-03-19T06:43:52.654Z,3.89
2019-03-19T06:44:52.644Z,3.87
2019-03-19T06:45:52.671Z,3.91
2019-03-19T06:46:52.662Z,3.89
2019-03-19T06:47:52.642Z,3.93
2019-03-19T06:48:52.656Z,3.93
2019-03-19T06:49:52.654Z,3.93
2019-03-19T06:50:52.688Z,3.9
2019-03-19T06:51:52.724Z,3.9
2019-03-19T06:52:52.668Z,3.91
2019-03-19T06:53:52.666Z,3.91
2019-03-19T06:54:53.315Z,3.93
2019-03-19T06:55:52.637Z,3.93
2019-03-19T06:56:52.644Z,3.9
2019-03-19T06:57:52.635Z,3.93
2019-03-19T06:58:52.632Z,3.93
2019-03-19T06:59:52.635Z,3.93
2019-03-19T07:00:52.648Z,3.94
2019-03-19T07:01:52.655Z,3.98
2019-03-19T07:02:52.677Z,3.97
2019-03-19T07:03:52.670Z,3.97
2019-03-19T07:04:52.634Z,3.97
2019-03-19T07:05:52.610Z,3.98
2019-03-19T07:06:52.618Z,3.96
2019-03-19T07:07:52.692Z,3.98
2019-03-19T07:08:52.658Z,4
2019-03-19T07:09:52.622Z,4
2019-03-19T07:10:52.621Z,4.01
2019-03-19T07:11:52.628Z,4
2019-03-19T07:12:52.617Z,4.02
2019-03-19T07:13:52.641Z,4.02
2019-03-19T07:14:52.639Z,4.04
2019-03-19T07:15:52.667Z,4.04
2019-03-19T07:16:52.616Z,4.04
2019-03-19T07:17:52.614Z,4.07
2019-03-19T07:18:52.597Z,4.07
2019-03-19T07:19:52.592Z,4.1
2019-03-19T07:20:52.595Z,4.08
2019-03-19T07:21:52.596Z,4.1
2019-03-19T07:22:52.593Z,4.1
2019-03-19T07:23:52.591Z,4.12
2019-03-19T07:24:52.586Z,4.14
2019-03-19T07:25:52.612Z,4.14
2019-03-19T07:26:52.598Z,4.17
2019-03-19T07:27:52.574Z,4.15
2019-03-19T07:28:52.626Z,4.17
2019-03-19T07:29:52.594Z,4.19
2019-03-19T07:30:52.586Z,4.22
2019-03-19T07:31:52.576Z,4.25
2019-03-19T07:32:52.576Z,4.28
2019-03-19T07:33:52.709Z,4.29
2019-03-19T07:34:52.566Z,4.33
2019-03-19T07:35:52.577Z,4.36
2019-03-19T07:36:52.572Z,4.39
2019-03-19T07:37:52.822Z,4.4
2019-03-19T07:38:52.404Z,4.43
2019-03-19T07:39:52.586Z,4.29
2019-03-19T07:40:52.591Z,4.35
2019-03-19T07:41:52.673Z,4.32
2019-03-19T07:42:52.563Z,4.35
2019-03-19T07:43:52.582Z,4.36
2019-03-19T07:44:52.577Z,4.4
2019-03-19T07:45:52.589Z,4.36
2019-03-19T07:46:52.586Z,4.32
2019-03-19T07:47:52.591Z,4.35
2019-03-19T07:48:52.678Z,4.38
2019-03-19T07:49:52.566Z,4.43
2019-03-19T07:50:52.564Z,4.46
2019-03-19T07:51:53.763Z,4.48
2019-03-19T07:52:52.571Z,4.53
2019-03-19T07:53:52.561Z,4.52
2019-03-19T07:54:52.557Z,4.6
2019-03-19T07:55:53.802Z,4.63
2019-03-19T07:56:52.547Z,4.69
2019-03-19T07:57:52.540Z,4.7
2019-03-19T07:58:52.576Z,4.76
2019-03-19T07:59:52.634Z,4.8
2019-03-19T08:00:52.576Z,4.77
2019-03-19T08:01:52.538Z,4.81
2019-03-19T08:02:52.636Z,4.81
2019-03-19T08:03:52.582Z,4.8
2019-03-19T08:04:52.536Z,4.79
2019-03-19T08:05:52.515Z,4.83
2019-03-19T08:06:52.568Z,4.86
2019-03-19T08:07:52.562Z,4.83
2019-03-19T08:08:52.600Z,4.86
2019-03-19T08:09:52.573Z,4.9
2019-03-19T08:10:52.520Z,4.88
2019-03-19T08:11:52.585Z,4.88
2019-03-19T08:12:52.531Z,4.91
2019-03-19T08:13:52.530Z,4.93
2019-03-19T08:14:52.641Z,4.97
2019-03-19T08:15:52.561Z,4.94
2019-03-19T08:16:53.520Z,4.95
2019-03-19T08:17:52.499Z,4.95
2019-03-19T08:18:52.522Z,5.01
2019-03-19T08:19:52.528Z,5.05
2019-03-19T08:20:52.694Z,5.07
2019-03-19T08:21:52.499Z,5.11
2019-03-19T08:22:52.494Z,5.12
2019-03-19T08:23:52.514Z,5.12
2019-03-19T08:24:52.491Z,5.11
2019-03-19T08:25:52.550Z,5.12
2019-03-19T08:26:52.512Z,5.15
2019-03-19T08:27:52.508Z,5.21
2019-03-19T08:28:55.795Z,5.22
2019-03-19T08:29:52.499Z,5.32
2019-03-19T08:30:52.542Z,5.35
2019-03-19T08:31:52.770Z,5.36
2019-03-19T08:32:52.493Z,5.35
2019-03-19T08:33:52.500Z,5.35
2019-03-19T08:34:52.487Z,5.38
2019-03-19T08:35:52.479Z,5.33
2019-03-19T08:36:52.511Z,5.36
2019-03-19T08:37:52.516Z,5.42
2019-03-19T08:38:52.484Z,5.46
2019-03-19T08:39:52.473Z,5.53
2019-03-19T08:40:52.568Z,5.6
2019-03-19T08:41:52.474Z,5.67
2019-03-19T08:42:53.504Z,5.7
2019-03-19T08:43:52.878Z,5.67
2019-03-19T08:44:52.474Z,5.74
2019-03-19T08:45:52.496Z,5.77
2019-03-19T08:46:52.464Z,5.81
2019-03-19T08:47:52.474Z,5.87
2019-03-19T08:48:52.463Z,5.85
2019-03-19T08:49:52.756Z,5.91
2019-03-19T08:50:52.450Z,5.94
2019-03-19T08:51:52.458Z,6
2019-03-19T08:52:55.829Z,6.05
2019-03-19T08:53:52.445Z,5.98
2019-03-19T08:54:52.489Z,5.97
2019-03-19T08:55:52.457Z,5.94
2019-03-19T08:56:52.460Z,5.94
2019-03-19T08:57:52.446Z,5.97
2019-03-19T08:58:52.475Z,6.01
2019-03-19T08:59:52.459Z,6.08
2019-03-19T09:00:52.436Z,6.13
2019-03-19T09:01:52.443Z,6.15
2019-03-19T09:02:52.439Z,6.12
2019-03-19T09:03:52.432Z,6.11
2019-03-19T09:04:52.468Z,6.13
2019-03-19T09:05:52.515Z,6.16
2019-03-19T09:06:52.463Z,6.19
2019-03-19T09:07:52.433Z,6.18
2019-03-19T09:08:52.425Z,6.23
2019-03-19T09:09:52.480Z,6.29
2019-03-19T09:10:52.540Z,6.28
2019-03-19T09:11:52.478Z,6.19
2019-03-19T09:12:52.449Z,6.22
2019-03-19T09:13:52.419Z,6.25
2019-03-19T09:14:52.412Z,6.2
2019-03-19T09:15:52.417Z,6.23
2019-03-19T09:16:52.426Z,6.26
2019-03-19T09:17:52.438Z,6.28
2019-03-19T09:18:52.422Z,6.25
2019-03-19T09:19:52.407Z,6.29
2019-03-19T09:20:54.252Z,6.28
2019-03-19T09:21:52.415Z,6.37
2019-03-19T09:22:52.452Z,6.41
2019-03-19T09:23:52.403Z,6.46
2019-03-19T09:24:52.455Z,6.51
2019-03-19T09:25:52.407Z,6.5
2019-03-19T09:26:52.398Z,6.51
2019-03-19T09:27:52.430Z,6.51
2019-03-19T09:28:52.399Z,6.53
2019-03-19T09:29:52.393Z,6.57
2019-03-19T09:30:52.402Z,6.6
2019-03-19T09:31:52.455Z,6.63
2019-03-19T09:32:52.539Z,6.63
2019-03-19T09:33:52.384Z,6.73
2019-03-19T09:34:52.393Z,6.81
2019-03-19T09:35:52.418Z,6.85
2019-03-19T09:36:57.931Z,6.92
2019-03-19T09:37:59.370Z,7.02
2019-03-19T09:38:52.386Z,7.08
2019-03-19T09:39:52.403Z,7.11
2019-03-19T09:40:52.429Z,7.02
2019-03-19T09:41:52.422Z,7.08
2019-03-19T09:42:52.431Z,7.19
2019-03-19T09:43:53.769Z,7.24
2019-03-19T09:44:58.911Z,7.29
2019-03-19T09:45:52.374Z,7.34
2019-03-19T09:46:52.411Z,7.34
2019-03-19T09:47:52.434Z,7.4
2019-03-19T09:48:52.437Z,7.44
2019-03-19T09:49:52.379Z,7.44
2019-03-19T09:50:52.374Z,7.36
2019-03-19T09:51:52.353Z,7.27
2019-03-19T09:52:52.363Z,7.26
2019-03-19T09:53:52.554Z,7.36
2019-03-19T09:54:52.674Z,7.34
2019-03-19T09:55:52.373Z,7.4
2019-03-19T09:56:52.358Z,7.46
2019-03-19T09:57:52.437Z,7.48
2019-03-19T09:58:52.417Z,7.51
2019-03-19T09:59:52.356Z,7.47
2019-03-19T10:00:52.358Z,7.5
2019-03-19T10:01:52.402Z,7.53
2019-03-19T10:02:52.334Z,7.51
2019-03-19T10:03:52.383Z,7.53
2019-03-19T10:04:52.400Z,7.59
2019-03-19T10:05:52.341Z,7.68
2019-03-19T10:06:52.351Z,7.68
2019-03-19T10:07:52.355Z,7.69
2019-03-19T10:08:52.372Z,7.75
2019-03-19T10:09:52.351Z,7.78
2019-03-19T10:10:52.745Z,7.81
2019-03-19T10:11:52.352Z,7.85
2019-03-19T10:12:52.342Z,7.95
2019-03-19T10:13:52.581Z,7.93
2019-03-19T10:14:52.330Z,8.03
2019-03-19T10:15:52.435Z,8.06
2019-03-19T10:16:52.365Z,8.02
2019-03-19T10:17:52.339Z,7.93
2019-03-19T10:18:52.418Z,7.84
2019-03-19T10:19:52.329Z,7.82
2019-03-19T10:20:52.327Z,7.85
2019-03-19T10:21:52.331Z,7.85
2019-03-19T10:22:52.386Z,7.95
2019-03-19T10:23:52.357Z,8.02
2019-03-19T10:24:52.311Z,8.03
2019-03-19T10:25:52.311Z,8.17
2019-03-19T10:26:52.303Z,8.13
2019-03-19T10:27:52.310Z,8.06
2019-03-19T10:28:52.308Z,8.05
2019-03-19T10:29:52.312Z,8.1
2019-03-19T10:30:52.293Z,8.24
2019-03-19T10:31:52.318Z,8.38
2019-03-19T10:32:52.498Z,8.33
2019-03-19T10:33:52.302Z,8.24
2019-03-19T10:34:52.368Z,8.34
2019-03-19T10:35:52.325Z,8.4
2019-03-19T10:36:52.324Z,8.55
2019-03-19T10:37:52.377Z,8.57
2019-03-19T10:38:52.324Z,8.52
2019-03-19T10:39:52.295Z,8.4
2019-03-19T10:40:52.293Z,8.47
2019-03-19T10:41:52.310Z,8.41
2019-03-19T10:42:52.272Z,8.37
2019-03-19T10:43:52.281Z,8.27
2019-03-19T10:44:52.277Z,8.19
2019-03-19T10:45:52.331Z,8.14
2019-03-19T10:46:52.305Z,8.06
2019-03-19T10:47:52.293Z,8.08
2019-03-19T10:48:52.273Z,8.13
2019-03-19T10:49:52.285Z,8.19
2019-03-19T10:50:52.341Z,8.24
2019-03-19T10:51:52.281Z,8.33
2019-03-19T10:52:52.292Z,8.43
2019-03-19T10:53:52.329Z,8.54
2019-03-19T10:54:52.290Z,8.58
2019-03-19T10:55:52.285Z,8.65
2019-03-19T10:56:52.271Z,8.59
2019-03-19T10:57:52.336Z,8.59
2019-03-19T10:58:52.514Z,8.61
2019-03-19T10:59:52.592Z,8.62
2019-03-19T11:00:06.518Z,8.62
2019-03-19T11:01:06.253Z,8.65
2019-03-19T11:02:06.228Z,8.59
2019-03-19T11:03:06.236Z,8.55
2019-03-19T11:04:06.340Z,8.64
2019-03-19T11:05:06.225Z,8.61
2019-03-19T11:06:06.243Z,8.52
2019-03-19T11:07:06.236Z,8.45
2019-03-19T11:08:06.300Z,8.49
2019-03-19T11:09:06.241Z,8.51
2019-03-19T11:10:06.234Z,8.52
2019-03-19T11:11:06.224Z,8.58
2019-03-19T11:12:06.217Z,8.61
2019-03-19T11:13:06.245Z,8.69
2019-03-19T11:14:06.224Z,8.78
2019-03-19T11:15:06.216Z,8.88
2019-03-19T11:16:06.224Z,8.95
2019-03-19T11:17:06.221Z,9.1
2019-03-19T11:18:06.213Z,9.2
2019-03-19T11:19:06.203Z,9.24
2019-03-19T11:20:06.261Z,9.41
2019-03-19T11:21:06.337Z,9.48
2019-03-19T11:22:06.257Z,9.58
2019-03-19T11:23:06.204Z,9.61
2019-03-19T11:24:06.222Z,9.45
2019-03-19T11:25:06.188Z,9.57
2019-03-19T11:26:06.197Z,9.44
2019-03-19T11:27:06.189Z,9.4
2019-03-19T11:28:06.214Z,9.34
2019-03-19T11:29:06.203Z,9.41
2019-03-19T11:30:06.885Z,9.55
2019-03-19T11:31:06.209Z,9.68
2019-03-19T11:32:06.184Z,9.83
2019-03-19T11:33:06.210Z,9.9
2019-03-19T11:34:06.236Z,9.73
2019-03-19T11:35:06.207Z,9.62
2019-03-19T11:36:06.210Z,9.68
2019-03-19T11:37:06.205Z,9.51
2019-03-19T11:38:06.220Z,9.4
2019-03-19T11:39:06.172Z,9.23
2019-03-19T11:40:06.259Z,9.3
2019-03-19T11:41:07.559Z,9.35
2019-03-19T11:42:06.567Z,9.33
2019-03-19T11:43:06.300Z,9.3
2019-03-19T11:44:06.171Z,9.27
2019-03-19T11:45:06.215Z,9.19
2019-03-19T11:46:06.179Z,9
2019-03-19T11:47:06.152Z,8.86
2019-03-19T11:48:06.198Z,8.85
2019-03-19T11:49:06.166Z,8.92
2019-03-19T11:50:06.173Z,9.09
2019-03-19T11:51:06.227Z,9.31
2019-03-19T11:52:06.160Z,9.26
2019-03-19T11:53:06.218Z,9.3
2019-03-19T11:54:06.195Z,9.19
2019-03-19T11:55:06.187Z,9.21
2019-03-19T11:56:06.181Z,9.3
2019-03-19T11:57:06.155Z,9.38
2019-03-19T11:58:06.154Z,9.45
2019-03-19T11:59:06.150Z,9.52
2019-03-19T12:00:11.870Z,9.41
2019-03-19T12:01:06.146Z,9.48
2019-03-19T12:02:06.164Z,9.48
2019-03-19T12:03:16.656Z,9.47
2019-03-19T12:04:06.313Z,9.48
2019-03-19T12:05:06.166Z,9.38
2019-03-19T12:06:06.134Z,9.29
2019-03-19T12:07:06.227Z,9.3
2019-03-19T12:08:06.197Z,9.42
2019-03-19T12:09:06.151Z,9.57
2019-03-19T12:10:06.241Z,9.7
2019-03-19T12:11:06.170Z,9.88
2019-03-19T12:12:06.161Z,9.99
2019-03-19T12:13:06.143Z,9.89
2019-03-19T12:14:06.152Z,9.58
2019-03-19T12:15:06.232Z,9.54
2019-03-19T12:16:06.186Z,9.52
2019-03-19T12:17:06.143Z,9.41
2019-03-19T12:18:06.178Z,9.35
2019-03-19T12:19:06.118Z,9.33
2019-03-19T12:20:06.189Z,9.35
2019-03-19T12:21:06.119Z,9.48
2019-03-19T12:22:06.125Z,9.61
2019-03-19T12:23:06.153Z,9.66
2019-03-19T12:24:06.138Z,9.65
2019-03-19T12:25:07.374Z,9.48
2019-03-19T12:26:06.231Z,9.47
2019-03-19T12:27:06.129Z,9.51
2019-03-19T12:28:06.119Z,9.51
2019-03-19T12:29:06.203Z,9.34
2019-03-19T12:30:06.208Z,9.34
2019-03-19T12:31:06.113Z,9.24
2019-03-19T12:32:06.107Z,9.11
2019-03-19T12:33:06.113Z,9.06
2019-03-19T12:34:06.109Z,9.11
2019-03-19T12:35:06.130Z,9.11
2019-03-19T12:36:06.094Z,9.16
2019-03-19T12:37:06.109Z,9.26
2019-03-19T12:38:06.084Z,9.37
2019-03-19T12:39:06.127Z,9.52
2019-03-19T12:40:06.142Z,9.68
2019-03-19T12:41:06.081Z,9.83
2019-03-19T12:42:06.136Z,9.94
2019-03-19T12:43:06.135Z,9.97
2019-03-19T12:44:06.127Z,9.96
2019-03-19T12:45:06.131Z,10.02
2019-03-19T12:46:06.118Z,10.13
2019-03-19T12:47:06.321Z,10.11
2019-03-19T12:48:06.090Z,10.1
2019-03-19T12:49:06.109Z,10.3
2019-03-19T12:50:06.162Z,10.25
2019-03-19T12:51:06.102Z,10.24
2019-03-19T12:52:06.109Z,10.3
2019-03-19T12:53:06.096Z,10.27
2019-03-19T12:54:06.074Z,10.31
2019-03-19T12:55:06.081Z,10.37
2019-03-19T12:56:06.124Z,10.25
2019-03-19T12:57:06.094Z,10.19
2019-03-19T12:58:06.092Z,10.16
2019-03-19T12:59:06.068Z,10.16
2019-03-19T13:00:06.151Z,10.17
2019-03-19T13:01:06.324Z,10.14
2019-03-19T13:02:06.088Z,10.13
2019-03-19T13:03:06.081Z,10.24
2019-03-19T13:04:06.079Z,10.19
2019-03-19T13:05:06.123Z,10.17
2019-03-19T13:06:06.093Z,10
2019-03-19T13:07:06.091Z,10.03
2019-03-19T13:08:06.148Z,9.86
2019-03-19T13:09:06.219Z,9.86
2019-03-19T13:10:06.065Z,9.81
2019-03-19T13:11:06.066Z,9.96
2019-03-19T13:12:06.056Z,10.02
2019-03-19T13:13:06.079Z,10.03
2019-03-19T13:14:06.074Z,10.03
2019-03-19T13:15:06.047Z,9.96
2019-03-19T13:16:06.067Z,9.88
2019-03-19T13:17:06.136Z,9.93
2019-03-19T13:18:06.066Z,9.86
2019-03-19T13:19:06.386Z,9.9
2019-03-19T13:20:06.121Z,9.86
2019-03-19T13:21:06.083Z,9.78
2019-03-19T13:22:06.115Z,9.92